sensor_id;sensor_type;location;lat;lon;timestamp;pressure;altitude;pressure_sealevel;temperature;humidity
19023;BME280;35226;48.606;8.858;2023-04-15T00:00:45;95324.75;;;4.63;100.00
19023;BME280;35226;48.606;8.858;2023-04-15T00:03:10;95318.63;;;4.59;100.00
19023;BME280;35226;48.606;8.858;2023-04-15T00:05:36;95312.28;;;4.46;100.00
19023;BME280;35226;48.606;8.858;2023-04-15T00:08:02;95316.63;;;4.43;100.00
19023;BME280;35226;48.606;8.858;2023-04-15T00:10:27;95325.25;;;4.42;100.00
19023;BME280;35226;48.606;8.858;2023-04-15T00:12:53;95324.94;;;4.40;100.00
19023;BME280;35226;48.606;8.858;2023-04-15T00:15:18;95315.78;;;4.46;100.00
19023;BME280;35226;48.606;8.858;2023-04-15T00:17:44;95320.41;;;4.33;100.00
19023;BME280;35226;48.606;8.858;2023-04-15T00:20:10;95319.63;;;4.33;100.00
19023;BME280;35226;48.606;8.858;2023-04-15T00:22:36;95321.34;;;4.27;100.00
19023;BME280;35226;48.606;8.858;2023-04-15T00:25:02;95312.78;;;4.25;100.00
19023;BME280;35226;48.606;8.858;2023-04-15T00:27:28;95311.19;;;4.27;100.00
19023;BME280;35226;48.606;8.858;2023-04-15T00:29:54;95310.75;;;4.29;100.00
19023;BME280;35226;48.606;8.858;2023-04-15T00:32:19;95309.69;;;4.23;100.00
19023;BME280;35226;48.606;8.858;2023-04-15T00:34:45;95309.81;;;4.19;100.00
19023;BME280;35226;48.606;8.858;2023-04-15T00:37:10;95307.41;;;4.21;100.00
19023;BME280;35226;48.606;8.858;2023-04-15T00:39:36;95306.38;;;4.15;100.00
19023;BME280;35226;48.606;8.858;2023-04-15T00:42:03;95304.16;;;4.10;100.00
19023;BME280;35226;48.606;8.858;2023-04-15T00:44:29;95307.75;;;4.07;100.00
19023;BME280;35226;48.606;8.858;2023-04-15T00:46:55;95310.22;;;4.01;100.00
19023;BME280;35226;48.606;8.858;2023-04-15T00:49:21;95300.38;;;4.04;100.00
19023;BME280;35226;48.606;8.858;2023-04-15T00:51:47;95303.22;;;4.00;100.00
19023;BME280;35226;48.606;8.858;2023-04-15T00:54:12;95307.47;;;4.01;100.00
19023;BME280;35226;48.606;8.858;2023-04-15T00:56:39;95308.84;;;4.09;100.00
19023;BME280;35226;48.606;8.858;2023-04-15T00:59:05;95312.53;;;3.83;100.00
19023;BME280;35226;48.606;8.858;2023-04-15T01:01:34;95308.22;;;4.02;100.00
19023;BME280;35226;48.606;8.858;2023-04-15T01:04:00;95311.13;;;3.95;100.00
19023;BME280;35226;48.606;8.858;2023-04-15T01:06:26;95312.59;;;3.99;100.00
19023;BME280;35226;48.606;8.858;2023-04-15T01:08:53;95311.66;;;4.06;100.00
19023;BME280;35226;48.606;8.858;2023-04-15T01:11:19;95312.66;;;3.96;100.00
19023;BME280;35226;48.606;8.858;2023-04-15T01:13:45;95316.09;;;4.00;100.00
19023;BME280;35226;48.606;8.858;2023-04-15T01:16:12;95307.78;;;3.87;100.00
19023;BME280;35226;48.606;8.858;2023-04-15T01:18:38;95308.00;;;3.77;100.00
19023;BME280;35226;48.606;8.858;2023-04-15T01:21:05;95318.59;;;3.75;100.00
19023;BME280;35226;48.606;8.858;2023-04-15T01:23:32;95320.28;;;3.68;100.00
19023;BME280;35226;48.606;8.858;2023-04-15T01:25:58;95318.31;;;3.69;100.00
19023;BME280;35226;48.606;8.858;2023-04-15T01:28:24;95316.44;;;3.66;100.00
19023;BME280;35226;48.606;8.858;2023-04-15T01:30:50;95312.44;;;3.70;100.00
19023;BME280;35226;48.606;8.858;2023-04-15T01:33:30;95316.00;;;3.67;100.00
19023;BME280;35226;48.606;8.858;2023-04-15T01:35:56;95316.22;;;3.77;100.00
19023;BME280;35226;48.606;8.858;2023-04-15T01:38:28;95323.28;;;3.74;100.00
19023;BME280;35226;48.606;8.858;2023-04-15T01:40:54;95311.16;;;3.75;100.00
19023;BME280;35226;48.606;8.858;2023-04-15T01:43:19;95308.25;;;3.66;100.00
19023;BME280;35226;48.606;8.858;2023-04-15T01:45:45;95309.06;;;3.63;100.00
19023;BME280;35226;48.606;8.858;2023-04-15T01:48:11;95307.41;;;3.69;100.00
19023;BME280;35226;48.606;8.858;2023-04-15T01:50:36;95303.19;;;3.64;100.00
19023;BME280;35226;48.606;8.858;2023-04-15T01:53:03;95302.41;;;3.64;100.00
19023;BME280;35226;48.606;8.858;2023-04-15T01:55:28;95306.78;;;3.61;100.00
19023;BME280;35226;48.606;8.858;2023-04-15T01:57:54;95295.50;;;3.59;100.00
19023;BME280;35226;48.606;8.858;2023-04-15T02:00:20;95295.16;;;3.57;100.00
19023;BME280;35226;48.606;8.858;2023-04-15T02:02:46;95296.09;;;3.51;100.00
19023;BME280;35226;48.606;8.858;2023-04-15T02:05:12;95300.34;;;3.52;100.00
19023;BME280;35226;48.606;8.858;2023-04-15T02:07:37;95295.72;;;3.49;100.00
19023;BME280;35226;48.606;8.858;2023-04-15T02:10:03;95296.09;;;3.51;100.00
19023;BME280;35226;48.606;8.858;2023-04-15T02:12:29;95300.41;;;3.48;100.00
19023;BME280;35226;48.606;8.858;2023-04-15T02:14:54;95299.72;;;3.44;100.00
19023;BME280;35226;48.606;8.858;2023-04-15T02:17:21;95297.69;;;3.48;100.00
19023;BME280;35226;48.606;8.858;2023-04-15T02:19:47;95293.00;;;3.49;100.00
19023;BME280;35226;48.606;8.858;2023-04-15T02:22:12;95297.28;;;3.50;100.00
19023;BME280;35226;48.606;8.858;2023-04-15T02:24:44;95296.50;;;3.49;100.00
19023;BME280;35226;48.606;8.858;2023-04-15T02:27:14;95299.28;;;3.46;100.00
19023;BME280;35226;48.606;8.858;2023-04-15T02:29:42;95306.25;;;3.30;100.00
19023;BME280;35226;48.606;8.858;2023-04-15T02:32:08;95301.19;;;3.29;100.00
19023;BME280;35226;48.606;8.858;2023-04-15T02:34:34;95304.75;;;3.26;100.00
19023;BME280;35226;48.606;8.858;2023-04-15T02:37:00;95311.00;;;3.26;100.00
19023;BME280;35226;48.606;8.858;2023-04-15T02:39:25;95309.94;;;3.20;100.00
19023;BME280;35226;48.606;8.858;2023-04-15T02:41:54;95310.63;;;3.24;100.00
19023;BME280;35226;48.606;8.858;2023-04-15T02:44:21;95309.09;;;3.23;100.00
19023;BME280;35226;48.606;8.858;2023-04-15T02:46:49;95311.41;;;3.25;100.00
19023;BME280;35226;48.606;8.858;2023-04-15T02:49:17;95302.03;;;3.26;100.00
19023;BME280;35226;48.606;8.858;2023-04-15T02:51:43;95309.75;;;3.31;100.00
19023;BME280;35226;48.606;8.858;2023-04-15T02:54:15;95301.56;;;3.31;100.00
19023;BME280;35226;48.606;8.858;2023-04-15T02:56:41;95308.19;;;3.30;100.00
19023;BME280;35226;48.606;8.858;2023-04-15T02:59:06;95302.81;;;3.26;100.00
19023;BME280;35226;48.606;8.858;2023-04-15T03:01:32;95302.44;;;3.24;100.00
19023;BME280;35226;48.606;8.858;2023-04-15T03:03:57;95296.94;;;3.28;100.00
19023;BME280;35226;48.606;8.858;2023-04-15T03:06:23;95296.50;;;3.29;100.00
19023;BME280;35226;48.606;8.858;2023-04-15T03:08:49;95308.25;;;3.26;100.00
19023;BME280;35226;48.606;8.858;2023-04-15T03:11:15;95297.28;;;3.30;100.00
19023;BME280;35226;48.606;8.858;2023-04-15T03:13:41;95298.19;;;3.23;100.00
19023;BME280;35226;48.606;8.858;2023-04-15T03:16:17;95304.56;;;3.17;100.00
19023;BME280;35226;48.606;8.858;2023-04-15T03:18:43;95301.25;;;3.06;100.00
19023;BME280;35226;48.606;8.858;2023-04-15T03:21:08;95316.16;;;3.01;100.00
19023;BME280;35226;48.606;8.858;2023-04-15T03:23:36;95313.09;;;2.99;100.00
19023;BME280;35226;48.606;8.858;2023-04-15T03:26:03;95307.56;;;3.03;100.00
19023;BME280;35226;48.606;8.858;2023-04-15T03:28:30;95317.00;;;2.98;100.00
19023;BME280;35226;48.606;8.858;2023-04-15T03:30:58;95317.53;;;2.89;100.00
19023;BME280;35226;48.606;8.858;2023-04-15T03:33:24;95316.41;;;2.87;100.00
19023;BME280;35226;48.606;8.858;2023-04-15T03:35:50;95313.19;;;2.72;100.00
19023;BME280;35226;48.606;8.858;2023-04-15T03:38:17;95310.44;;;2.72;100.00
19023;BME280;35226;48.606;8.858;2023-04-15T03:40:42;95313.19;;;2.72;100.00
19023;BME280;35226;48.606;8.858;2023-04-15T03:43:08;95308.72;;;2.82;100.00
19023;BME280;35226;48.606;8.858;2023-04-15T03:45:34;95313.00;;;2.59;100.00
19023;BME280;35226;48.606;8.858;2023-04-15T03:47:59;95308.91;;;2.71;100.00
19023;BME280;35226;48.606;8.858;2023-04-15T03:50:25;95309.38;;;2.66;100.00
19023;BME280;35226;48.606;8.858;2023-04-15T03:52:52;95300.31;;;2.73;100.00
19023;BME280;35226;48.606;8.858;2023-04-15T03:55:17;95297.91;;;2.75;100.00
19023;BME280;35226;48.606;8.858;2023-04-15T03:57:44;95296.06;;;2.72;100.00
19023;BME280;35226;48.606;8.858;2023-04-15T04:00:10;95296.94;;;2.65;100.00
19023;BME280;35226;48.606;8.858;2023-04-15T04:02:38;95301.31;;;2.59;100.00
19023;BME280;35226;48.606;8.858;2023-04-15T04:05:04;95299.78;;;2.58;100.00
19023;BME280;35226;48.606;8.858;2023-04-15T04:07:33;95300.31;;;2.49;100.00
19023;BME280;35226;48.606;8.858;2023-04-15T04:09:58;95302.41;;;2.42;100.00
19023;BME280;35226;48.606;8.858;2023-04-15T04:12:24;95297.78;;;2.39;100.00
19023;BME280;35226;48.606;8.858;2023-04-15T04:14:49;95301.50;;;2.48;100.00
19023;BME280;35226;48.606;8.858;2023-04-15T04:17:15;95293.13;;;2.36;100.00
19023;BME280;35226;48.606;8.858;2023-04-15T04:19:41;95297.13;;;2.31;100.00
19023;BME280;35226;48.606;8.858;2023-04-15T04:22:06;95300.31;;;2.26;100.00
19023;BME280;35226;48.606;8.858;2023-04-15T04:24:32;95304.66;;;2.23;100.00
19023;BME280;35226;48.606;8.858;2023-04-15T04:26:57;95311.63;;;2.25;100.00
19023;BME280;35226;48.606;8.858;2023-04-15T04:29:23;95304.69;;;2.20;100.00
19023;BME280;35226;48.606;8.858;2023-04-15T04:31:48;95306.97;;;2.25;100.00
19023;BME280;35226;48.606;8.858;2023-04-15T04:34:14;95308.84;;;2.28;100.00
19023;BME280;35226;48.606;8.858;2023-04-15T04:36:40;95314.38;;;2.25;100.00
19023;BME280;35226;48.606;8.858;2023-04-15T04:39:06;95317.53;;;2.19;100.00
19023;BME280;35226;48.606;8.858;2023-04-15T04:41:32;95317.88;;;2.25;100.00
19023;BME280;35226;48.606;8.858;2023-04-15T04:43:57;95318.50;;;2.33;100.00
19023;BME280;35226;48.606;8.858;2023-04-15T04:46:23;95319.16;;;2.40;100.00
19023;BME280;35226;48.606;8.858;2023-04-15T04:48:48;95321.16;;;2.36;100.00
19023;BME280;35226;48.606;8.858;2023-04-15T04:51:14;95321.69;;;2.28;100.00
19023;BME280;35226;48.606;8.858;2023-04-15T04:53:40;95325.91;;;2.32;100.00
19023;BME280;35226;48.606;8.858;2023-04-15T04:56:07;95326.38;;;2.27;100.00
19023;BME280;35226;48.606;8.858;2023-04-15T04:58:33;95322.34;;;2.35;100.00
19023;BME280;35226;48.606;8.858;2023-04-15T05:00:58;95323.88;;;2.13;100.00
19023;BME280;35226;48.606;8.858;2023-04-15T05:03:24;95328.47;;;2.16;100.00
19023;BME280;35226;48.606;8.858;2023-04-15T05:05:49;95322.19;;;2.22;100.00
19023;BME280;35226;48.606;8.858;2023-04-15T05:08:15;95328.44;;;2.19;100.00
19023;BME280;35226;48.606;8.858;2023-04-15T05:10:41;95323.88;;;2.13;100.00
19023;BME280;35226;48.606;8.858;2023-04-15T05:13:06;95328.03;;;2.21;100.00
19023;BME280;35226;48.606;8.858;2023-04-15T05:15:32;95327.25;;;2.20;100.00
19023;BME280;35226;48.606;8.858;2023-04-15T05:17:59;95320.63;;;2.21;100.00
19023;BME280;35226;48.606;8.858;2023-04-15T05:20:25;95322.09;;;2.26;100.00
19023;BME280;35226;48.606;8.858;2023-04-15T05:22:50;95327.22;;;2.24;100.00
19023;BME280;35226;48.606;8.858;2023-04-15T05:25:16;95324.97;;;2.42;100.00
19023;BME280;35226;48.606;8.858;2023-04-15T05:27:42;95327.91;;;2.28;100.00
19023;BME280;35226;48.606;8.858;2023-04-15T05:30:08;95329.50;;;2.52;100.00
19023;BME280;35226;48.606;8.858;2023-04-15T05:32:33;95330.13;;;2.60;100.00
19023;BME280;35226;48.606;8.858;2023-04-15T05:34:59;95333.69;;;2.57;100.00
19023;BME280;35226;48.606;8.858;2023-04-15T05:37:25;95328.53;;;2.63;100.00
19023;BME280;35226;48.606;8.858;2023-04-15T05:39:50;95328.47;;;2.66;100.00
19023;BME280;35226;48.606;8.858;2023-04-15T05:42:16;95328.00;;;2.48;100.00
19023;BME280;35226;48.606;8.858;2023-04-15T05:44:42;95335.09;;;2.65;100.00
19023;BME280;35226;48.606;8.858;2023-04-15T05:47:07;95321.78;;;2.71;100.00
19023;BME280;35226;48.606;8.858;2023-04-15T05:49:34;95326.69;;;2.79;100.00
19023;BME280;35226;48.606;8.858;2023-04-15T05:52:00;95335.28;;;2.78;100.00
19023;BME280;35226;48.606;8.858;2023-04-15T05:54:25;95332.44;;;2.62;100.00
19023;BME280;35226;48.606;8.858;2023-04-15T05:56:52;95336.91;;;2.95;100.00
19023;BME280;35226;48.606;8.858;2023-04-15T05:59:18;95334.84;;;3.03;100.00
19023;BME280;35226;48.606;8.858;2023-04-15T06:01:44;95332.22;;;2.95;100.00
19023;BME280;35226;48.606;8.858;2023-04-15T06:04:09;95337.81;;;2.88;100.00
19023;BME280;35226;48.606;8.858;2023-04-15T06:06:36;95337.22;;;3.01;100.00
19023;BME280;35226;48.606;8.858;2023-04-15T06:09:03;95328.72;;;2.95;100.00
19023;BME280;35226;48.606;8.858;2023-04-15T06:11:28;95342.28;;;2.79;100.00
19023;BME280;35226;48.606;8.858;2023-04-15T06:13:54;95340.22;;;2.63;100.00
19023;BME280;35226;48.606;8.858;2023-04-15T06:16:19;95349.16;;;2.64;100.00
19023;BME280;35226;48.606;8.858;2023-04-15T06:18:45;95343.28;;;2.88;100.00
19023;BME280;35226;48.606;8.858;2023-04-15T06:21:11;95341.97;;;2.96;100.00
19023;BME280;35226;48.606;8.858;2023-04-15T06:23:36;95339.31;;;2.93;100.00
19023;BME280;35226;48.606;8.858;2023-04-15T06:26:02;95337.13;;;3.04;100.00
19023;BME280;35226;48.606;8.858;2023-04-15T06:28:28;95343.63;;;2.90;100.00
19023;BME280;35226;48.606;8.858;2023-04-15T06:30:53;95342.81;;;2.93;100.00
19023;BME280;35226;48.606;8.858;2023-04-15T06:33:19;95349.72;;;2.98;100.00
19023;BME280;35226;48.606;8.858;2023-04-15T06:35:45;95344.69;;;2.96;100.00
19023;BME280;35226;48.606;8.858;2023-04-15T06:38:11;95351.13;;;3.06;100.00
19023;BME280;35226;48.606;8.858;2023-04-15T06:40:37;95350.91;;;2.97;100.00
19023;BME280;35226;48.606;8.858;2023-04-15T06:43:02;95345.28;;;3.08;100.00
19023;BME280;35226;48.606;8.858;2023-04-15T06:45:29;95348.13;;;3.01;100.00
19023;BME280;35226;48.606;8.858;2023-04-15T06:47:55;95347.53;;;3.13;100.00
19023;BME280;35226;48.606;8.858;2023-04-15T06:50:21;95352.75;;;3.04;100.00
19023;BME280;35226;48.606;8.858;2023-04-15T06:52:46;95353.00;;;3.13;100.00
19023;BME280;35226;48.606;8.858;2023-04-15T06:55:12;95346.53;;;3.03;100.00
19023;BME280;35226;48.606;8.858;2023-04-15T06:57:38;95354.09;;;3.15;100.00
19023;BME280;35226;48.606;8.858;2023-04-15T07:00:05;95349.84;;;3.34;100.00
19023;BME280;35226;48.606;8.858;2023-04-15T07:02:32;95351.25;;;3.42;100.00
19023;BME280;35226;48.606;8.858;2023-04-15T07:04:57;95353.06;;;3.49;100.00
19023;BME280;35226;48.606;8.858;2023-04-15T07:07:23;95353.34;;;3.54;100.00
19023;BME280;35226;48.606;8.858;2023-04-15T07:09:50;95350.41;;;3.65;100.00
19023;BME280;35226;48.606;8.858;2023-04-15T07:12:16;95346.78;;;3.71;100.00
19023;BME280;35226;48.606;8.858;2023-04-15T07:14:42;95346.53;;;3.82;100.00
19023;BME280;35226;48.606;8.858;2023-04-15T07:17:08;95344.44;;;3.90;100.00
19023;BME280;35226;48.606;8.858;2023-04-15T07:19:34;95346.47;;;4.02;100.00
19023;BME280;35226;48.606;8.858;2023-04-15T07:22:00;95344.22;;;4.17;100.00
19023;BME280;35226;48.606;8.858;2023-04-15T07:24:25;95343.56;;;4.29;100.00
19023;BME280;35226;48.606;8.858;2023-04-15T07:26:54;95338.75;;;4.33;100.00
19023;BME280;35226;48.606;8.858;2023-04-15T07:29:23;95340.16;;;4.57;100.00
19023;BME280;35226;48.606;8.858;2023-04-15T07:31:49;95341.44;;;4.69;100.00
19023;BME280;35226;48.606;8.858;2023-04-15T07:34:14;95348.16;;;4.80;100.00
19023;BME280;35226;48.606;8.858;2023-04-15T07:36:41;95345.00;;;4.98;100.00
19023;BME280;35226;48.606;8.858;2023-04-15T07:39:07;95346.84;;;5.17;100.00
19023;BME280;35226;48.606;8.858;2023-04-15T07:41:32;95346.03;;;5.33;100.00
19023;BME280;35226;48.606;8.858;2023-04-15T07:43:58;95347.13;;;5.36;100.00
19023;BME280;35226;48.606;8.858;2023-04-15T07:46:24;95342.16;;;5.59;100.00
19023;BME280;35226;48.606;8.858;2023-04-15T07:48:52;95344.59;;;5.70;100.00
19023;BME280;35226;48.606;8.858;2023-04-15T07:51:18;95346.28;;;5.80;100.00
19023;BME280;35226;48.606;8.858;2023-04-15T07:53:46;95352.25;;;5.91;100.00
19023;BME280;35226;48.606;8.858;2023-04-15T07:56:11;95346.34;;;5.93;100.00
19023;BME280;35226;48.606;8.858;2023-04-15T07:58:37;95351.06;;;6.05;100.00
19023;BME280;35226;48.606;8.858;2023-04-15T08:01:03;95344.06;;;6.29;100.00
19023;BME280;35226;48.606;8.858;2023-04-15T08:03:29;95340.75;;;6.47;100.00
19023;BME280;35226;48.606;8.858;2023-04-15T08:05:56;95338.00;;;6.73;100.00
19023;BME280;35226;48.606;8.858;2023-04-15T08:08:21;95334.59;;;6.68;100.00
19023;BME280;35226;48.606;8.858;2023-04-15T08:10:47;95338.19;;;6.91;100.00
19023;BME280;35226;48.606;8.858;2023-04-15T08:13:12;95339.78;;;7.14;100.00
19023;BME280;35226;48.606;8.858;2023-04-15T08:15:38;95333.53;;;7.35;100.00
19023;BME280;35226;48.606;8.858;2023-04-15T08:18:04;95337.13;;;7.23;100.00
19023;BME280;35226;48.606;8.858;2023-04-15T08:20:29;95336.75;;;7.55;100.00
19023;BME280;35226;48.606;8.858;2023-04-15T08:22:55;95336.91;;;7.52;100.00
19023;BME280;35226;48.606;8.858;2023-04-15T08:25:20;95339.56;;;7.64;100.00
19023;BME280;35226;48.606;8.858;2023-04-15T08:27:46;95332.53;;;7.85;100.00
19023;BME280;35226;48.606;8.858;2023-04-15T08:30:12;95339.06;;;7.78;100.00
19023;BME280;35226;48.606;8.858;2023-04-15T08:32:38;95333.94;;;7.90;100.00
19023;BME280;35226;48.606;8.858;2023-04-15T08:35:04;95335.69;;;8.05;100.00
19023;BME280;35226;48.606;8.858;2023-04-15T08:37:30;95338.34;;;8.09;100.00
19023;BME280;35226;48.606;8.858;2023-04-15T08:39:56;95334.44;;;8.28;100.00
19023;BME280;35226;48.606;8.858;2023-04-15T08:42:31;95339.03;;;8.22;100.00
19023;BME280;35226;48.606;8.858;2023-04-15T08:45:03;95330.78;;;8.22;100.00
19023;BME280;35226;48.606;8.858;2023-04-15T08:47:30;95347.19;;;8.35;100.00
19023;BME280;35226;48.606;8.858;2023-04-15T08:49:58;95343.13;;;8.48;100.00
19023;BME280;35226;48.606;8.858;2023-04-15T08:52:30;95343.03;;;8.61;100.00
19023;BME280;35226;48.606;8.858;2023-04-15T08:54:57;95340.91;;;8.74;100.00
19023;BME280;35226;48.606;8.858;2023-04-15T08:57:27;95338.69;;;8.91;100.00
19023;BME280;35226;48.606;8.858;2023-04-15T08:59:56;95342.50;;;8.94;100.00
19023;BME280;35226;48.606;8.858;2023-04-15T09:02:23;95340.25;;;9.10;100.00
19023;BME280;35226;48.606;8.858;2023-04-15T09:04:53;95336.75;;;9.28;100.00
19023;BME280;35226;48.606;8.858;2023-04-15T09:07:18;95340.88;;;9.23;100.00
19023;BME280;35226;48.606;8.858;2023-04-15T09:09:44;95347.31;;;9.30;100.00
19023;BME280;35226;48.606;8.858;2023-04-15T09:12:10;95345.47;;;9.54;100.00
19023;BME280;35226;48.606;8.858;2023-04-15T09:14:39;95353.28;;;9.46;100.00
19023;BME280;35226;48.606;8.858;2023-04-15T09:17:05;95354.50;;;9.73;100.00
19023;BME280;35226;48.606;8.858;2023-04-15T09:19:30;95349.16;;;9.78;100.00
19023;BME280;35226;48.606;8.858;2023-04-15T09:21:58;95357.72;;;9.98;100.00
19023;BME280;35226;48.606;8.858;2023-04-15T09:24:25;95358.16;;;10.06;100.00
19023;BME280;35226;48.606;8.858;2023-04-15T09:26:52;95356.00;;;10.10;100.00
19023;BME280;35226;48.606;8.858;2023-04-15T09:29:19;95358.91;;;10.16;100.00
19023;BME280;35226;48.606;8.858;2023-04-15T09:31:44;95357.00;;;10.40;100.00
19023;BME280;35226;48.606;8.858;2023-04-15T09:34:10;95356.38;;;10.54;100.00
19023;BME280;35226;48.606;8.858;2023-04-15T09:39:12;95355.97;;;10.70;100.00
19023;BME280;35226;48.606;8.858;2023-04-15T09:41:38;95352.66;;;10.90;100.00
19023;BME280;35226;48.606;8.858;2023-04-15T09:44:04;95351.94;;;11.13;100.00
19023;BME280;35226;48.606;8.858;2023-04-15T09:46:43;95361.97;;;11.49;100.00
19023;BME280;35226;48.606;8.858;2023-04-15T09:49:10;95361.44;;;11.60;100.00
19023;BME280;35226;48.606;8.858;2023-04-15T09:51:36;95361.03;;;11.76;100.00
19023;BME280;35226;48.606;8.858;2023-04-15T09:54:02;95364.03;;;12.02;100.00
19023;BME280;35226;48.606;8.858;2023-04-15T09:56:36;95365.28;;;12.01;99.17
19023;BME280;35226;48.606;8.858;2023-04-15T09:59:04;95366.34;;;12.04;97.22
19023;BME280;35226;48.606;8.858;2023-04-15T10:01:30;95360.06;;;12.33;88.00
19023;BME280;35226;48.606;8.858;2023-04-15T10:03:56;95355.06;;;12.37;80.02
19023;BME280;35226;48.606;8.858;2023-04-15T10:06:25;95350.75;;;12.65;78.22
19023;BME280;35226;48.606;8.858;2023-04-15T10:08:51;95360.91;;;12.53;71.80
19023;BME280;35226;48.606;8.858;2023-04-15T10:11:18;95359.81;;;12.66;70.34
19023;BME280;35226;48.606;8.858;2023-04-15T10:13:45;95359.16;;;12.56;72.38
19023;BME280;35226;48.606;8.858;2023-04-15T10:16:14;95357.25;;;12.47;73.24
19023;BME280;35226;48.606;8.858;2023-04-15T10:18:46;95355.25;;;12.63;77.64
19023;BME280;35226;48.606;8.858;2023-04-15T10:21:13;95358.59;;;12.67;79.28
19023;BME280;35226;48.606;8.858;2023-04-15T10:23:45;95357.81;;;12.66;63.63
19023;BME280;35226;48.606;8.858;2023-04-15T10:26:12;95358.78;;;12.63;69.65
19023;BME280;35226;48.606;8.858;2023-04-15T10:28:43;95360.41;;;12.55;61.48
19023;BME280;35226;48.606;8.858;2023-04-15T10:31:11;95360.50;;;12.60;61.99
19023;BME280;35226;48.606;8.858;2023-04-15T10:33:38;95364.13;;;12.67;55.82
19023;BME280;35226;48.606;8.858;2023-04-15T10:36:04;95368.69;;;12.84;52.23
19023;BME280;35226;48.606;8.858;2023-04-15T10:48:49;95360.63;;;13.56;41.96
19023;BME280;35226;48.606;8.858;2023-04-15T10:51:15;95362.28;;;13.89;44.63
19023;BME280;35226;48.606;8.858;2023-04-15T10:53:41;95367.38;;;13.70;43.07
19023;BME280;35226;48.606;8.858;2023-04-15T10:56:08;95364.00;;;14.06;42.79
19023;BME280;35226;48.606;8.858;2023-04-15T10:58:42;95371.03;;;13.82;42.13
19023;BME280;35226;48.606;8.858;2023-04-15T11:01:07;95379.50;;;13.73;39.43
19023;BME280;35226;48.606;8.858;2023-04-15T11:03:38;95375.09;;;14.06;40.37
19023;BME280;35226;48.606;8.858;2023-04-15T11:06:05;95378.81;;;13.98;40.28
19023;BME280;35226;48.606;8.858;2023-04-15T11:11:21;95381.41;;;14.07;41.83
19023;BME280;35226;48.606;8.858;2023-04-15T11:13:48;95381.53;;;14.18;43.16
19023;BME280;35226;48.606;8.858;2023-04-15T11:16:14;95383.22;;;14.10;43.04
19023;BME280;35226;48.606;8.858;2023-04-15T11:18:40;95392.53;;;14.07;44.84
19023;BME280;35226;48.606;8.858;2023-04-15T11:21:07;95389.56;;;13.90;44.69
19023;BME280;35226;48.606;8.858;2023-04-15T11:26:01;95386.59;;;13.74;43.46
19023;BME280;35226;48.606;8.858;2023-04-15T11:28:30;95404.06;;;13.59;45.13
19023;BME280;35226;48.606;8.858;2023-04-15T11:30:57;95398.25;;;13.57;46.39
19023;BME280;35226;48.606;8.858;2023-04-15T11:33:23;95401.69;;;13.52;48.56
19023;BME280;35226;48.606;8.858;2023-04-15T11:35:50;95405.84;;;13.42;48.66
19023;BME280;35226;48.606;8.858;2023-04-15T11:38:17;95416.53;;;13.29;49.18
19023;BME280;35226;48.606;8.858;2023-04-15T11:40:43;95419.00;;;13.12;48.39
19023;BME280;35226;48.606;8.858;2023-04-15T11:43:13;95416.72;;;13.25;49.75
19023;BME280;35226;48.606;8.858;2023-04-15T11:45:57;95419.78;;;13.13;49.72
19023;BME280;35226;48.606;8.858;2023-04-15T11:48:26;95420.56;;;12.98;47.48
19023;BME280;35226;48.606;8.858;2023-04-15T11:50:56;95422.53;;;13.13;48.43
19023;BME280;35226;48.606;8.858;2023-04-15T11:53:23;95414.34;;;13.04;46.47
19023;BME280;35226;48.606;8.858;2023-04-15T11:55:52;95424.38;;;13.30;46.59
19023;BME280;35226;48.606;8.858;2023-04-15T11:58:23;95418.31;;;13.67;45.74
19023;BME280;35226;48.606;8.858;2023-04-15T12:00:50;95420.31;;;13.87;45.58
19023;BME280;35226;48.606;8.858;2023-04-15T12:03:23;95421.69;;;14.17;45.05
19023;BME280;35226;48.606;8.858;2023-04-15T12:06:08;95426.75;;;14.39;45.12
19023;BME280;35226;48.606;8.858;2023-04-15T12:09:12;95432.16;;;14.48;45.63
19023;BME280;35226;48.606;8.858;2023-04-15T12:11:45;95427.94;;;14.58;46.30
19023;BME280;35226;48.606;8.858;2023-04-15T12:16:45;95435.00;;;14.13;47.65
19023;BME280;35226;48.606;8.858;2023-04-15T12:19:13;95448.50;;;14.66;46.97
19023;BME280;35226;48.606;8.858;2023-04-15T12:21:41;95448.53;;;14.46;46.75
19023;BME280;35226;48.606;8.858;2023-04-15T12:24:09;95442.44;;;14.42;48.14
19023;BME280;35226;48.606;8.858;2023-04-15T12:26:41;95452.69;;;15.13;51.43
19023;BME280;35226;48.606;8.858;2023-04-15T12:29:08;95456.13;;;15.34;47.77
19023;BME280;35226;48.606;8.858;2023-04-15T12:31:35;95455.66;;;15.04;47.43
19023;BME280;35226;48.606;8.858;2023-04-15T12:34:02;95457.84;;;14.95;46.47
19023;BME280;35226;48.606;8.858;2023-04-15T12:36:29;95463.31;;;14.84;45.31
19023;BME280;35226;48.606;8.858;2023-04-15T12:39:01;95455.66;;;15.04;45.43
19023;BME280;35226;48.606;8.858;2023-04-15T12:41:27;95461.63;;;15.54;42.07
19023;BME280;35226;48.606;8.858;2023-04-15T12:43:52;95463.88;;;15.93;40.45
19023;BME280;35226;48.606;8.858;2023-04-15T12:46:18;95459.44;;;16.23;40.24
19023;BME280;35226;48.606;8.858;2023-04-15T12:48:44;95480.13;;;16.06;39.51
19023;BME280;35226;48.606;8.858;2023-04-15T12:51:10;95476.13;;;16.18;40.61
19023;BME280;35226;48.606;8.858;2023-04-15T12:53:36;95473.03;;;16.05;42.02
19023;BME280;35226;48.606;8.858;2023-04-15T12:56:02;95489.34;;;15.80;41.89
19023;BME280;35226;48.606;8.858;2023-04-15T12:58:27;95492.41;;;15.45;41.74
19023;BME280;35226;48.606;8.858;2023-04-15T13:00:53;95500.97;;;15.42;42.81
19023;BME280;35226;48.606;8.858;2023-04-15T13:03:18;95502.63;;;15.28;46.51
19023;BME280;35226;48.606;8.858;2023-04-15T13:05:44;95502.59;;;15.23;45.33
19023;BME280;35226;48.606;8.858;2023-04-15T13:08:09;95502.00;;;15.13;45.73
19023;BME280;35226;48.606;8.858;2023-04-15T13:10:35;95502.09;;;15.24;44.01
19023;BME280;35226;48.606;8.858;2023-04-15T13:13:02;95493.88;;;15.09;44.79
19023;BME280;35226;48.606;8.858;2023-04-15T13:15:28;95506.34;;;15.51;44.21
19023;BME280;35226;48.606;8.858;2023-04-15T13:17:54;95496.31;;;15.28;40.53